createdAt,value
2018-09-17T16:08:10.368Z,3.90
2018-09-17T16:11:35.359Z,4.67
2018-09-17T16:15:00.174Z,4.43
2018-09-17T16:18:24.988Z,4.07
2018-09-17T16:21:50.012Z,4.33
2018-09-17T16:25:14.785Z,5.10
2018-09-17T16:28:39.628Z,4.12
2018-09-17T16:32:04.462Z,4.53
2018-09-17T16:35:29.347Z,4.05
2018-09-17T16:38:54.575Z,4.60
2018-09-17T16:42:19.319Z,5.37
2018-09-17T16:45:44.685Z,4.40
2018-09-17T16:49:09.521Z,5.47
2018-09-17T16:52:34.401Z,5.43
2018-09-17T16:56:00.523Z,4.80
2018-09-17T16:59:26.727Z,4.87
2018-09-17T17:02:51.652Z,5.30
2018-09-17T17:06:16.911Z,6.90
2018-09-17T17:09:43.019Z,9.77
2018-09-17T17:13:10.341Z,5.60
2018-09-17T17:16:36.390Z,5.80
2018-09-17T17:20:03.670Z,5.60
2018-09-17T17:23:29.930Z,6.77
2018-09-17T17:26:55.970Z,6.37
2018-09-17T17:30:22.601Z,6.40
2018-09-17T17:33:47.775Z,6.50
2018-09-17T17:37:13.259Z,6.57
2018-09-17T17:40:38.442Z,7.13
2018-09-17T17:44:03.782Z,6.73
2018-09-17T17:47:29.687Z,6.20
2018-09-17T17:50:56.229Z,6.53
2018-09-17T17:54:21.457Z,7.10
2018-09-17T17:57:47.169Z,5.30
2018-09-17T18:01:12.566Z,4.63
2018-09-17T18:04:37.715Z,5.90
2018-09-17T18:08:03.073Z,5.73
2018-09-17T18:11:27.950Z,5.23
2018-09-17T18:14:52.957Z,5.90
2018-09-17T18:18:17.875Z,5.50
2018-09-17T18:21:42.857Z,6.07
2018-09-17T18:25:08.154Z,9.40
2018-09-17T18:28:33.466Z,8.33
2018-09-17T18:31:59.240Z,7.60
2018-09-17T18:35:24.305Z,8.23
2018-09-17T18:38:52.730Z,7.23
2018-09-17T18:42:17.718Z,7.77
2018-09-17T18:45:42.848Z,6.73
2018-09-17T18:49:08.055Z,6.67
2018-09-17T18:52:33.175Z,7.63
2018-09-17T18:55:58.618Z,6.93
2018-09-17T18:59:23.710Z,7.77
2018-09-17T19:02:48.995Z,6.00
2018-09-17T19:06:15.153Z,8.00
2018-09-17T19:09:45.171Z,7.57
2018-09-17T19:13:10.175Z,6.20
2018-09-17T19:16:40.285Z,6.80
2018-09-17T19:20:06.572Z,6.33
2018-09-17T19:23:36.543Z,8.17
2018-09-17T19:27:01.495Z,6.87
2018-09-17T19:30:26.493Z,6.37
2018-09-17T19:33:51.499Z,7.70
2018-09-17T19:37:21.459Z,7.70
2018-09-17T19:40:46.580Z,7.30
2018-09-17T19:44:11.660Z,7.50
2018-09-17T19:47:36.564Z,7.60
2018-09-17T19:51:06.496Z,6.33
2018-09-17T19:54:31.372Z,7.57
2018-09-17T19:58:01.423Z,7.00
2018-09-17T20:01:26.558Z,7.60
2018-09-17T20:04:56.832Z,6.43
2018-09-17T20:08:21.842Z,6.97
2018-09-17T20:11:46.885Z,7.27
2018-09-17T20:15:11.873Z,7.07
2018-09-17T20:18:37.080Z,7.90
2018-09-17T20:22:01.973Z,7.00
2018-09-17T20:25:27.645Z,7.40
2018-09-17T20:28:52.927Z,8.13
2018-09-17T20:32:19.031Z,6.90
2018-09-17T20:35:44.325Z,7.77
2018-09-17T20:39:10.595Z,7.43
2018-09-17T20:42:35.665Z,8.37
2018-09-17T20:46:05.590Z,7.50
2018-09-17T20:49:30.907Z,7.13
2018-09-17T20:52:56.156Z,7.87
2018-09-17T20:56:26.118Z,8.53
2018-09-17T20:59:57.529Z,7.77
2018-09-17T21:03:22.967Z,8.20
2018-09-17T21:07:00.654Z,8.20
2018-09-17T21:10:29.401Z,7.93
2018-09-17T21:13:54.527Z,8.73
2018-09-17T21:17:22.196Z,9.67
2018-09-17T21:20:53.268Z,8.83
2018-09-17T21:24:18.295Z,9.00
2018-09-17T21:27:52.043Z,8.53
2018-09-17T21:31:17.100Z,8.23
2018-09-17T21:34:45.708Z,8.30
2018-09-17T21:38:11.644Z,8.63
2018-09-17T21:41:37.022Z,9.53
2018-09-17T21:45:03.330Z,9.30
2018-09-17T21:48:28.677Z,9.90
2018-09-17T21:51:57.521Z,9.03
2018-09-17T21:55:23.218Z,9.23
2018-09-17T21:58:50.009Z,9.33
2018-09-17T22:02:16.985Z,9.20
2018-09-17T22:05:43.337Z,9.27
2018-09-17T22:09:10.072Z,9.40
2018-09-17T22:12:36.054Z,9.63
2018-09-17T22:16:01.645Z,9.90
2018-09-17T22:19:27.262Z,9.80
2018-09-17T22:47:31.214Z,8.73
2018-09-17T22:51:24.350Z,9.20
2018-09-17T23:00:09.282Z,9.57
